Time;durP1;ratioP1;P1;durP2;ratioP2;P2;SDS_P1;SDS_P2;PMS_P1;PMS_P2;Temp;Humidity;BMP_temperature;BMP_pressure;BME280_temperature;BME280_humidity;BME280_pressure;Samples;Min_cycle;Max_cycle;Signal;HPM_P1;HPM_P2
2023/05/06 00:01:31;;;;;;;2.13;2.03;;;19.80;48.10;;;;;;5011103;28;20620;-77
2023/05/06 00:03:56;;;;;;;2.37;2.27;;;19.80;48.10;;;;;;4995197;28;20619;-76
2023/05/06 00:06:22;;;;;;;2.40;2.20;;;19.80;48.10;;;;;;5005583;28;20218;-76
2023/05/06 00:08:47;;;;;;;2.40;2.30;;;19.80;48.10;;;;;;5007317;28;20208;-76
2023/05/06 00:11:13;;;;;;;1.80;1.70;;;19.80;48.10;;;;;;5005960;28;20723;-76
2023/05/06 00:13:38;;;;;;;1.90;1.80;;;19.80;48.10;;;;;;5009617;28;20212;-75
2023/05/06 00:16:04;;;;;;;2.13;2.03;;;19.80;48.10;;;;;;5012781;28;20310;-76
2023/05/06 00:18:30;;;;;;;2.63;2.03;;;19.80;48.10;;;;;;4999085;28;20329;-76
2023/05/06 00:20:55;;;;;;;2.10;2.00;;;19.80;48.20;;;;;;5001941;28;20722;-76
2023/05/06 00:23:21;;;;;;;2.03;1.93;;;19.80;48.10;;;;;;5002665;28;20216;-77
2023/05/06 00:25:46;;;;;;;1.90;1.80;;;19.80;48.20;;;;;;5011682;28;20254;-76
2023/05/06 00:28:12;;;;;;;2.00;1.90;;;19.80;48.10;;;;;;4998608;28;20227;-76
2023/05/06 00:30:37;;;;;;;2.00;1.90;;;19.80;48.10;;;;;;5015998;28;20218;-76
2023/05/06 00:33:03;;;;;;;1.80;1.70;;;19.80;48.20;;;;;;5008580;28;20239;-75
2023/05/06 00:35:29;;;;;;;2.40;2.30;;;19.80;48.10;;;;;;5017210;28;20717;-76
2023/05/06 00:38:06;;;;;;;1.80;1.70;;;19.80;48.90;;;;;;5013648;28;20227;-76
2023/05/06 00:40:32;;;;;;;2.07;1.97;;;19.80;48.10;;;;;;5017304;28;20978;-77
2023/05/06 00:42:57;;;;;;;2.20;2.00;;;19.80;48.20;;;;;;5013413;28;20471;-76
2023/05/06 00:45:24;;;;;;;2.20;2.10;;;19.80;48.10;;;;;;5018511;28;20241;-77
2023/05/06 00:47:50;;;;;;;2.33;2.23;;;19.80;48.20;;;;;;5018201;28;20223;-76
2023/05/06 00:50:16;;;;;;;2.20;2.10;;;19.80;48.20;;;;;;5019498;28;20460;-76
2023/05/06 00:52:41;;;;;;;2.40;2.20;;;19.80;48.20;;;;;;5016298;28;20464;-76
2023/05/06 00:55:08;;;;;;;2.30;2.20;;;19.80;48.20;;;;;;5018411;28;20740;-76
2023/05/06 00:57:33;;;;;;;2.47;2.27;;;19.80;48.20;;;;;;5019403;28;20261;-76
2023/05/06 00:59:59;;;;;;;2.17;2.07;;;19.80;48.10;;;;;;5018096;28;20453;-77
2023/05/06 01:02:25;;;;;;;2.23;2.13;;;19.80;48.20;;;;;;5006142;28;20204;-76
2023/05/06 01:04:50;;;;;;;2.43;2.23;;;19.80;48.20;;;;;;5016980;28;20242;-76
2023/05/06 01:07:31;;;;;;;2.00;1.90;;;19.80;48.20;;;;;;5019298;28;20218;-76
2023/05/06 01:10:09;;;;;;;2.10;2.00;;;19.80;48.20;;;;;;5017136;28;20222;-77
2023/05/06 01:12:54;;;;;;;2.30;2.20;;;19.80;48.10;;;;;;5017572;28;20450;-76
2023/05/06 01:15:25;;;;;;;2.27;2.17;;;19.80;48.20;;;;;;5014918;28;20846;-75
2023/05/06 01:17:53;;;;;;;1.93;1.83;;;19.80;49.00;;;;;;5018659;28;20464;-76
2023/05/06 01:20:20;;;;;;;2.40;2.30;;;19.80;48.20;;;;;;5018141;28;20470;-76
2023/05/06 01:22:48;;;;;;;2.20;2.10;;;19.80;48.20;;;;;;5017800;28;20451;-76
2023/05/06 01:25:21;;;;;;;2.33;2.23;;;19.80;48.20;;;;;;5006446;28;21250;-77
2023/05/06 01:27:47;;;;;;;2.03;1.93;;;19.80;48.20;;;;;;5015646;28;20445;-76
2023/05/06 01:30:15;;;;;;;2.20;2.10;;;19.80;48.20;;;;;;5013488;28;20546;-76
2023/05/06 01:33:02;;;;;;;2.27;2.17;;;19.80;48.20;;;;;;4997093;28;20530;-76
2023/05/06 01:35:40;;;;;;;2.07;1.97;;;19.80;48.20;;;;;;5019581;28;20529;-76
2023/05/06 01:38:18;;;;;;;1.90;1.80;;;19.80;48.20;;;;;;5011382;28;20454;-76
2023/05/06 01:40:46;;;;;;;2.20;2.10;;;19.80;48.20;;;;;;5001057;28;20443;-76
2023/05/06 01:43:14;;;;;;;2.43;2.23;;;19.70;48.20;;;;;;5015296;28;21100;-76
2023/05/06 01:45:41;;;;;;;2.37;2.27;;;19.80;48.20;;;;;;5018360;28;20464;-76
2023/05/06 01:48:07;;;;;;;1.97;1.87;;;19.80;48.20;;;;;;5003431;28;20457;-77
2023/05/06 01:50:34;;;;;;;2.23;2.13;;;19.80;48.30;;;;;;5008880;28;20781;-76
2023/05/06 01:53:01;;;;;;;2.30;2.20;;;19.80;48.20;;;;;;5010577;28;20494;-76
2023/05/06 01:55:27;;;;;;;2.10;2.00;;;19.80;48.20;;;;;;5001018;28;20430;-76
2023/05/06 01:57:55;;;;;;;2.40;2.30;;;19.70;48.20;;;;;;5013165;28;20442;-76
2023/05/06 02:00:23;;;;;;;2.43;2.33;;;19.80;48.20;;;;;;5020209;28;20290;-76
2023/05/06 02:02:49;;;;;;;2.10;2.00;;;19.80;48.30;;;;;;5011147;28;20829;-76
2023/05/06 02:05:15;;;;;;;2.30;2.20;;;19.80;48.30;;;;;;5015559;28;20455;-76
2023/05/06 02:07:40;;;;;;;2.10;2.00;;;19.80;48.20;;;;;;5017773;28;20222;-76
2023/05/06 02:10:07;;;;;;;2.90;2.17;;;19.80;48.20;;;;;;4995352;28;20233;-77
2023/05/06 02:12:33;;;;;;;2.03;1.80;;;19.70;48.20;;;;;;5010556;28;20272;-76
2023/05/06 02:14:58;;;;;;;2.20;2.10;;;19.80;48.30;;;;;;5016166;28;20428;-76
2023/05/06 02:17:24;;;;;;;2.10;2.00;;;19.80;48.30;;;;;;5006237;28;20230;-76
2023/05/06 02:19:50;;;;;;;2.20;2.10;;;19.80;48.30;;;;;;5012887;28;20237;-77
2023/05/06 02:22:15;;;;;;;2.10;2.00;;;19.70;48.30;;;;;;5008283;28;20436;-76
2023/05/06 02:24:41;;;;;;;2.33;2.23;;;19.80;48.20;;;;;;5002878;28;20218;-76
2023/05/06 02:27:06;;;;;;;2.33;2.23;;;19.80;48.30;;;;;;5017254;28;20297;-76
2023/05/06 02:29:33;;;;;;;2.37;2.27;;;19.80;48.20;;;;;;5015345;28;20237;-76
2023/05/06 02:31:58;;;;;;;2.63;2.53;;;19.70;48.20;;;;;;5013059;28;20780;-76
2023/05/06 02:34:24;;;;;;;2.47;2.33;;;19.80;48.20;;;;;;4990399;28;20513;-77
2023/05/06 02:36:50;;;;;;;2.17;2.07;;;19.70;48.20;;;;;;5017875;28;20597;-77
2023/05/06 02:39:16;;;;;;;2.10;2.00;;;19.80;48.30;;;;;;5011516;28;20442;-75
2023/05/06 02:41:41;;;;;;;1.83;1.73;;;19.80;48.30;;;;;;4996822;28;20225;-76
2023/05/06 02:44:07;;;;;;;2.10;2.00;;;19.70;48.20;;;;;;5007521;28;20214;-76
2023/05/06 02:46:33;;;;;;;2.20;2.10;;;19.70;48.20;;;;;;5005439;28;20266;-76
2023/05/06 02:49:00;;;;;;;2.57;2.37;;;19.80;48.20;;;;;;5003270;28;20232;-76
2023/05/06 02:51:25;;;;;;;3.07;2.87;;;19.70;48.30;;;;;;4994015;28;21702;-76
2023/05/06 02:53:51;;;;;;;2.10;2.00;;;19.70;48.20;;;;;;5012202;28;20426;-76
2023/05/06 02:56:16;;;;;;;2.07;1.97;;;19.70;48.20;;;;;;5010778;28;20272;-76
2023/05/06 02:58:42;;;;;;;2.43;2.33;;;19.70;48.20;;;;;;4993078;28;20226;-76
2023/05/06 03:01:08;;;;;;;2.20;2.10;;;19.80;48.30;;;;;;5002725;28;20250;-76
2023/05/06 03:03:33;;;;;;;2.90;2.30;;;19.80;48.30;;;;;;5008526;28;20633;-76
2023/05/06 03:05:59;;;;;;;2.50;2.30;;;19.70;48.20;;;;;;5011596;28;20251;-76
2023/05/06 03:08:24;;;;;;;2.07;1.97;;;19.80;48.30;;;;;;5005019;28;20226;-76
2023/05/06 03:10:50;;;;;;;2.17;2.07;;;19.70;48.30;;;;;;5016047;28;20227;-76
2023/05/06 03:13:15;;;;;;;2.17;2.07;;;19.70;48.30;;;;;;5010481;28;20662;-76
2023/05/06 03:15:41;;;;;;;2.60;2.50;;;19.70;48.30;;;;;;4982851;28;20302;-76
2023/05/06 03:18:06;;;;;;;2.50;2.40;;;19.70;48.30;;;;;;5008967;28;20221;-75
2023/05/06 03:20:33;;;;;;;2.53;2.33;;;19.70;48.30;;;;;;5004979;28;20231;-76
2023/05/06 03:22:59;;;;;;;2.10;2.00;;;19.70;48.30;;;;;;5001381;28;20265;-75
2023/05/06 03:25:24;;;;;;;2.67;2.50;;;19.70;48.30;;;;;;5009034;28;22049;-76
2023/05/06 03:27:50;;;;;;;2.70;2.60;;;19.70;48.40;;;;;;4991538;28;20705;-76
2023/05/06 03:30:15;;;;;;;2.40;2.30;;;19.70;48.30;;;;;;4986489;28;20226;-76
2023/05/06 03:32:41;;;;;;;2.57;2.37;;;19.70;48.30;;;;;;5005382;28;20285;-75
2023/05/06 03:35:07;;;;;;;2.20;2.10;;;19.80;48.40;;;;;;4996079;28;20304;-76
2023/05/06 03:37:32;;;;;;;2.10;2.00;;;19.80;48.40;;;;;;4990377;28;20810;-75
2023/05/06 03:39:59;;;;;;;2.17;2.07;;;19.70;48.40;;;;;;5002260;28;20553;-76
2023/05/06 03:42:25;;;;;;;2.40;2.27;;;19.70;48.30;;;;;;4991857;28;20615;-75
2023/05/06 03:44:50;;;;;;;2.23;2.13;;;19.70;48.30;;;;;;5007161;28;20540;-75
2023/05/06 03:47:16;;;;;;;2.27;1.90;;;19.70;48.30;;;;;;4993372;28;20211;-76
2023/05/06 03:49:41;;;;;;;2.40;2.30;;;19.70;48.30;;;;;;5001295;28;20673;-76
2023/05/06 03:52:07;;;;;;;1.93;1.83;;;19.70;48.30;;;;;;5012594;28;20211;-75
2023/05/06 03:54:32;;;;;;;2.20;2.10;;;19.80;48.40;;;;;;5001751;28;20253;-75
2023/05/06 03:56:58;;;;;;;2.17;2.07;;;19.70;48.30;;;;;;5010468;28;20227;-76
2023/05/06 03:59:23;;;;;;;2.20;2.10;;;19.70;48.30;;;;;;4997817;28;20214;-75
2023/05/06 04:01:49;;;;;;;2.00;1.90;;;19.80;48.40;;;;;;5012421;28;20234;-75
2023/05/06 04:04:15;;;;;;;2.00;1.80;;;19.70;48.30;;;;;;4999901;28;20226;-75
2023/05/06 04:06:43;;;;;;;2.40;2.30;;;19.70;48.30;;;;;;4994808;28;20215;-75
2023/05/06 04:09:09;;;;;;;2.60;2.50;;;19.70;48.30;;;;;;4980407;28;21913;-75
2023/05/06 04:11:35;;;;;;;2.30;2.20;;;19.70;48.30;;;;;;5005069;28;20447;-75
2023/05/06 04:14:00;;;;;;;1.97;1.87;;;19.70;48.30;;;;;;5002701;28;20227;-74
2023/05/06 04:16:26;;;;;;;2.23;2.13;;;19.70;48.30;;;;;;5010679;28;20560;-78
2023/05/06 04:18:51;;;;;;;1.80;1.70;;;19.70;48.30;;;;;;4999971;28;20319;-77
2023/05/06 04:21:17;;;;;;;2.20;2.10;;;19.70;48.30;;;;;;5009101;28;21178;-76
2023/05/06 04:23:43;;;;;;;2.07;1.97;;;19.70;48.30;;;;;;4985701;28;20223;-77
2023/05/06 04:26:09;;;;;;;1.90;1.80;;;19.70;48.30;;;;;;5002374;28;20246;-76
2023/05/06 04:28:34;;;;;;;2.17;2.07;;;19.70;48.30;;;;;;4997910;28;20244;-76
2023/05/06 04:31:01;;;;;;;2.20;2.10;;;19.70;48.30;;;;;;5015556;28;20443;-76
2023/05/06 04:33:28;;;;;;;2.17;2.07;;;19.70;48.30;;;;;;4997388;28;20705;-76
2023/05/06 04:35:54;;;;;;;2.27;2.17;;;19.70;48.30;;;;;;5015386;28;20464;-76
2023/05/06 04:38:21;;;;;;;2.00;1.90;;;19.70;48.30;;;;;;5014734;28;21008;-76
2023/05/06 04:40:48;;;;;;;2.10;2.00;;;19.70;48.30;;;;;;5017425;28;20874;-76
2023/05/06 04:43:15;;;;;;;2.13;2.03;;;19.70;48.30;;;;;;5013982;28;20473;-76
2023/05/06 04:45:48;;;;;;;2.10;2.00;;;19.80;48.30;;;;;;5003849;28;20567;-76
2023/05/06 04:48:18;;;;;;;2.03;1.93;;;19.70;48.30;;;;;;4995375;28;20452;-76
2023/05/06 04:50:44;;;;;;;1.90;1.80;;;19.80;48.40;;;;;;5016674;28;20512;-76
2023/05/06 04:53:09;;;;;;;2.20;2.10;;;19.70;48.40;;;;;;5011697;28;20443;-74
2023/05/06 04:55:35;;;;;;;1.90;1.80;;;19.80;48.40;;;;;;5008719;28;23579;-77
2023/05/06 04:58:01;;;;;;;2.23;2.13;;;19.70;48.20;;;;;;5011425;28;20222;-76
2023/05/06 05:00:26;;;;;;;1.97;1.87;;;19.70;48.30;;;;;;5014874;28;20218;-76
2023/05/06 05:02:52;;;;;;;1.80;1.70;;;19.80;48.40;;;;;;5006662;28;20231;-76
2023/05/06 05:05:18;;;;;;;2.27;2.17;;;19.70;48.30;;;;;;4985813;28;20231;-76
2023/05/06 05:07:44;;;;;;;2.40;2.23;;;19.80;48.30;;;;;;5014297;28;20215;-76
2023/05/06 05:10:09;;;;;;;2.13;2.03;;;19.70;48.30;;;;;;5013071;28;20469;-76
2023/05/06 05:12:35;;;;;;;2.70;2.50;;;19.80;48.30;;;;;;5012325;28;20242;-76
2023/05/06 05:15:01;;;;;;;2.03;1.93;;;19.80;48.30;;;;;;4994985;28;21954;-76
2023/05/06 05:17:27;;;;;;;1.80;1.70;;;19.80;48.30;;;;;;5001259;28;20241;-75
2023/05/06 05:19:53;;;;;;;2.13;2.00;;;19.80;48.30;;;;;;5006569;28;20451;-76
2023/05/06 05:22:18;;;;;;;2.00;1.90;;;19.80;48.40;;;;;;5010689;28;20573;-76
2023/05/06 05:24:44;;;;;;;1.90;1.80;;;19.80;48.30;;;;;;4993456;28;20230;-75
2023/05/06 05:27:09;;;;;;;2.00;1.90;;;19.80;48.30;;;;;;5012271;28;20207;-76
2023/05/06 05:29:35;;;;;;;1.97;1.87;;;19.80;48.30;;;;;;5014490;28;20570;-76
2023/05/06 05:32:01;;;;;;;2.50;2.40;;;19.80;48.30;;;;;;5012784;28;20231;-75
2023/05/06 05:34:27;;;;;;;2.10;2.00;;;19.80;48.30;;;;;;5014653;28;20217;-78
2023/05/06 05:36:53;;;;;;;2.23;2.13;;;19.80;48.30;;;;;;5016526;28;21283;-77
2023/05/06 05:39:19;;;;;;;2.07;1.97;;;19.80;48.30;;;;;;5017556;28;20573;-76
2023/05/06 05:41:44;;;;;;;1.87;1.77;;;19.80;48.30;;;;;;5016290;28;20433;-75
2023/05/06 05:44:10;;;;;;;1.93;1.83;;;19.80;48.30;;;;;;5011102;28;20646;-73
2023/05/06 05:46:35;;;;;;;2.00;1.90;;;19.80;48.30;;;;;;5010170;28;20229;-74
2023/05/06 05:49:01;;;;;;;2.00;1.90;;;19.80;48.30;;;;;;5004867;28;20238;-75
2023/05/06 05:51:26;;;;;;;2.33;2.23;;;19.80;48.30;;;;;;5012488;28;20222;-77
2023/05/06 05:53:52;;;;;;;1.90;1.80;;;19.80;48.30;;;;;;5003668;28;20253;-78
2023/05/06 05:56:18;;;;;;;2.03;1.93;;;19.80;48.30;;;;;;4991271;28;20703;-77
2023/05/06 05:58:43;;;;;;;2.20;2.10;;;19.80;48.40;;;;;;5001946;28;20219;-79
2023/05/06 06:01:09;;;;;;;2.00;1.90;;;19.80;48.20;;;;;;4984128;28;20286;-79
2023/05/06 06:03:34;;;;;;;2.07;1.97;;;19.80;48.30;;;;;;4995940;28;20265;-79
2023/05/06 06:06:00;;;;;;;2.23;2.13;;;19.80;48.30;;;;;;5000515;28;20318;-78
2023/05/06 06:08:25;;;;;;;1.90;1.80;;;19.80;48.30;;;;;;5002262;28;20219;-79
2023/05/06 06:10:51;;;;;;;1.97;1.87;;;19.80;48.30;;;;;;5004632;28;20228;-79
2023/05/06 06:13:17;;;;;;;2.07;1.97;;;19.80;48.40;;;;;;5001605;28;20562;-80
2023/05/06 06:15:42;;;;;;;2.23;2.13;;;19.80;49.10;;;;;;4982140;28;20654;-77
2023/05/06 06:18:08;;;;;;;2.10;2.00;;;19.80;48.30;;;;;;5008327;28;20272;-75
2023/05/06 06:20:34;;;;;;;2.00;1.90;;;19.80;48.30;;;;;;5016728;28;20685;-75
2023/05/06 06:23:00;;;;;;;2.00;1.90;;;19.80;48.30;;;;;;5011495;28;20241;-76
2023/05/06 06:25:26;;;;;;;2.00;1.90;;;19.80;48.20;;;;;;5000024;28;20970;-76
2023/05/06 06:27:54;;;;;;;1.83;1.73;;;19.80;48.20;;;;;;5002740;28;20451;-76
2023/05/06 06:30:20;;;;;;;1.90;1.80;;;19.80;48.20;;;;;;4989599;28;20227;-75
2023/05/06 06:32:52;;;;;;;2.00;1.90;;;19.80;48.20;;;;;;4994490;28;20447;-75
2023/05/06 06:35:22;;;;;;;2.07;1.87;;;19.90;48.30;;;;;;5001952;28;20227;-76
2023/05/06 06:37:48;;;;;;;2.23;2.03;;;19.80;48.20;;;;;;4996488;28;20457;-76
2023/05/06 06:40:14;;;;;;;2.17;2.00;;;19.80;48.20;;;;;;4989408;28;20526;-75
2023/05/06 06:42:39;;;;;;;2.20;2.10;;;19.90;48.30;;;;;;4989653;28;20231;-75
2023/05/06 06:45:06;;;;;;;2.03;1.93;;;19.80;48.20;;;;;;5011534;28;20438;-76
2023/05/06 06:47:32;;;;;;;1.80;1.70;;;19.80;48.20;;;;;;5007228;28;20689;-77
2023/05/06 06:49:57;;;;;;;2.10;2.00;;;19.80;48.20;;;;;;5009277;28;20429;-76
2023/05/06 06:52:23;;;;;;;2.13;2.03;;;19.90;48.30;;;;;;5016986;28;20266;-78
2023/05/06 06:54:48;;;;;;;2.10;2.00;;;19.90;48.30;;;;;;5010704;28;20221;-77
2023/05/06 06:57:14;;;;;;;1.80;1.70;;;19.80;48.20;;;;;;5012936;28;20215;-77
2023/05/06 06:59:39;;;;;;;2.33;2.03;;;19.80;48.20;;;;;;4995445;28;20229;-76
2023/05/06 07:02:05;;;;;;;1.70;1.60;;;19.90;48.30;;;;;;5015456;28;20222;-79
2023/05/06 07:04:31;;;;;;;2.03;1.93;;;19.90;48.30;;;;;;5005583;28;21001;-80
2023/05/06 07:06:56;;;;;;;1.77;1.67;;;19.80;48.10;;;;;;5003789;28;20220;-79
2023/05/06 07:09:22;;;;;;;1.97;1.87;;;19.90;48.20;;;;;;4999587;28;20238;-79
2023/05/06 07:11:48;;;;;;;1.80;1.70;;;19.90;48.20;;;;;;5005697;28;20219;-78
2023/05/06 07:14:13;;;;;;;2.10;2.00;;;19.90;49.00;;;;;;5011625;28;20714;-72
2023/05/06 07:16:39;;;;;;;1.90;1.80;;;19.90;48.20;;;;;;4996537;28;20220;-79
2023/05/06 07:19:04;;;;;;;1.97;1.87;;;19.90;48.20;;;;;;4996023;28;20223;-73
2023/05/06 07:21:33;;;;;;;1.80;1.70;;;19.90;48.20;;;;;;5009497;28;20223;-74
2023/05/06 07:23:59;;;;;;;3.37;2.00;;;19.90;48.20;;;;;;5011727;28;20222;-75
2023/05/06 07:26:25;;;;;;;2.20;2.10;;;19.90;48.20;;;;;;4994796;28;20455;-75
2023/05/06 07:28:50;;;;;;;2.63;2.43;;;19.90;48.20;;;;;;5002000;28;20719;-74
2023/05/06 07:31:19;;;;;;;2.13;1.93;;;19.90;48.10;;;;;;5013096;28;20510;-74
2023/05/06 07:33:48;;;;;;;2.10;2.00;;;19.90;48.20;;;;;;4984945;28;20636;-74
2023/05/06 07:36:14;;;;;;;3.60;2.30;;;19.90;48.10;;;;;;4985250;28;20892;-74
2023/05/06 07:38:40;;;;;;;3.47;2.10;;;19.90;48.10;;;;;;5009023;28;20481;-74
2023/05/06 07:41:05;;;;;;;2.23;2.13;;;19.90;48.10;;;;;;4993244;28;21665;-75
2023/05/06 07:43:31;;;;;;;2.90;2.20;;;19.90;48.10;;;;;;4999817;28;20482;-74
2023/05/06 07:46:01;;;;;;;6.27;2.37;;;19.90;48.20;;;;;;5002041;28;20334;-74
2023/05/06 07:48:28;;;;;;;2.33;2.10;;;19.90;48.10;;;;;;5006356;28;20904;-74
2023/05/06 07:50:53;;;;;;;5.60;2.97;;;19.90;48.10;;;;;;4994517;28;21359;-74
2023/05/06 07:53:19;;;;;;;2.10;2.00;;;19.90;48.10;;;;;;4986275;28;20468;-74
2023/05/06 07:55:44;;;;;;;2.23;2.13;;;19.90;48.10;;;;;;5006046;28;20384;-75
2023/05/06 07:58:10;;;;;;;2.80;2.00;;;19.90;48.20;;;;;;5011545;28;20224;-74
2023/05/06 08:00:35;;;;;;;4.07;1.77;;;19.90;48.10;;;;;;5010169;28;20319;-74
2023/05/06 08:03:01;;;;;;;1.80;1.70;;;19.90;48.10;;;;;;5011025;28;20227;-74
2023/05/06 08:05:26;;;;;;;3.23;1.90;;;19.90;48.90;;;;;;4993718;28;20227;-75
2023/05/06 08:07:53;;;;;;;3.43;2.10;;;19.90;48.20;;;;;;5001803;28;20691;-74
2023/05/06 08:10:18;;;;;;;2.33;2.10;;;19.90;48.10;;;;;;4993169;28;20227;-74
2023/05/06 08:12:44;;;;;;;1.90;1.70;;;19.90;48.10;;;;;;4998726;28;20508;-74
2023/05/06 08:15:10;;;;;;;2.80;1.73;;;19.90;48.00;;;;;;4997948;28;20242;-74
2023/05/06 08:17:35;;;;;;;5.43;2.37;;;19.90;48.00;;;;;;5007082;28;20222;-74
2023/05/06 08:20:01;;;;;;;1.77;1.67;;;19.90;48.80;;;;;;5000689;28;20246;-75
2023/05/06 08:22:27;;;;;;;2.60;1.70;;;19.90;48.00;;;;;;5005587;28;20223;-75
2023/05/06 08:24:53;;;;;;;3.73;1.77;;;19.90;48.00;;;;;;5004721;28;20242;-75
2023/05/06 08:27:19;;;;;;;2.03;1.93;;;19.90;48.00;;;;;;4996863;28;20719;-73
2023/05/06 08:29:44;;;;;;;2.30;2.17;;;19.90;48.00;;;;;;5007518;28;20465;-72
2023/05/06 08:32:10;;;;;;;2.30;2.20;;;19.90;48.00;;;;;;5007522;28;20265;-72
2023/05/06 08:34:35;;;;;;;1.90;1.80;;;19.90;48.00;;;;;;5009728;28;20279;-72
2023/05/06 08:37:01;;;;;;;1.80;1.70;;;19.90;48.00;;;;;;5002017;28;20221;-72
2023/05/06 08:39:27;;;;;;;2.27;2.07;;;19.90;48.00;;;;;;5005164;28;20211;-72
2023/05/06 08:41:56;;;;;;;1.83;1.73;;;19.90;48.00;;;;;;4998944;28;21073;-73
2023/05/06 08:44:23;;;;;;;1.70;1.60;;;19.90;48.00;;;;;;5000188;28;20219;-71
2023/05/06 08:46:49;;;;;;;2.17;1.97;;;19.90;48.00;;;;;;5010611;28;20415;-72
2023/05/06 08:49:15;;;;;;;2.00;1.90;;;19.90;48.80;;;;;;5005770;28;20426;-72
2023/05/06 08:51:43;;;;;;;1.70;1.60;;;19.90;48.00;;;;;;5007963;28;20226;-73
2023/05/06 08:54:10;;;;;;;1.80;1.70;;;19.90;48.10;;;;;;5005495;28;20255;-73
2023/05/06 08:56:38;;;;;;;1.83;1.60;;;19.90;48.00;;;;;;4999092;28;20457;-73
2023/05/06 08:59:07;;;;;;;3.30;1.80;;;19.90;48.00;;;;;;5006640;28;20962;-73
2023/05/06 09:01:34;;;;;;;1.93;1.80;;;19.90;48.00;;;;;;4996897;28;20472;-73
2023/05/06 09:04:02;;;;;;;1.77;1.67;;;19.90;48.10;;;;;;4992776;28;20898;-73
2023/05/06 09:06:28;;;;;;;2.03;1.90;;;19.90;48.00;;;;;;5001588;28;20488;-73
2023/05/06 09:08:53;;;;;;;1.83;1.30;;;19.90;48.00;;;;;;4990596;28;20465;-73
2023/05/06 09:11:28;;;;;;;1.60;1.50;;;19.90;48.00;;;;;;4997089;28;20315;-74
2023/05/06 09:14:13;;;;;;;1.77;1.67;;;20.00;48.10;;;;;;5008044;28;20234;-73
2023/05/06 09:16:46;;;;;;;1.47;1.37;;;19.90;48.00;;;;;;4995347;28;20506;-73
2023/05/06 09:19:12;;;;;;;1.50;1.40;;;19.90;48.00;;;;;;4995518;28;20441;-74
2023/05/06 09:21:40;;;;;;;1.60;1.50;;;19.90;48.00;;;;;;4994770;28;20531;-73
2023/05/06 09:24:07;;;;;;;2.00;1.60;;;19.90;48.00;;;;;;5005401;28;20436;-74
2023/05/06 09:26:35;;;;;;;1.80;1.70;;;20.00;48.20;;;;;;5006347;28;20490;-72
2023/05/06 09:29:02;;;;;;;1.60;1.50;;;20.00;48.10;;;;;;5013986;28;20435;-72
2023/05/06 09:31:28;;;;;;;1.90;1.80;;;20.00;48.10;;;;;;5015815;28;20469;-73
2023/05/06 09:33:55;;;;;;;3.77;1.53;;;20.00;48.10;;;;;;5011496;28;20469;-73
2023/05/06 09:36:22;;;;;;;1.60;1.50;;;20.00;48.10;;;;;;5014664;28;20962;-73
2023/05/06 09:38:48;;;;;;;2.03;1.83;;;20.00;48.10;;;;;;5014720;28;20582;-72
2023/05/06 09:41:15;;;;;;;1.90;1.70;;;20.00;48.10;;;;;;5012893;28;20597;-72
2023/05/06 09:43:47;;;;;;;1.73;1.63;;;20.00;48.10;;;;;;5016402;28;20447;-73
2023/05/06 09:46:13;;;;;;;1.77;1.67;;;20.00;48.10;;;;;;5018237;28;20862;-72
2023/05/06 09:48:40;;;;;;;1.67;1.30;;;20.00;48.10;;;;;;5018187;28;20431;-72
2023/05/06 09:51:06;;;;;;;1.70;1.60;;;20.00;48.10;;;;;;5020397;28;20958;-72
2023/05/06 09:53:37;;;;;;;1.80;1.70;;;20.00;48.10;;;;;;5019074;28;20443;-72
2023/05/06 09:56:07;;;;;;;1.80;1.70;;;20.00;48.10;;;;;;5017367;28;20465;-72
2023/05/06 09:58:34;;;;;;;2.63;1.60;;;20.00;48.10;;;;;;4993196;28;20449;-72
2023/05/06 10:01:04;;;;;;;1.67;1.53;;;20.00;48.10;;;;;;5013100;28;20928;-72
2023/05/06 10:03:30;;;;;;;1.67;1.57;;;20.00;48.10;;;;;;4999793;28;20441;-73
2023/05/06 10:05:59;;;;;;;1.53;1.43;;;20.00;48.10;;;;;;5014339;28;20490;-72
2023/05/06 10:08:25;;;;;;;1.70;1.60;;;20.00;48.10;;;;;;5008888;28;20310;-72
2023/05/06 10:10:51;;;;;;;2.03;1.93;;;20.00;48.90;;;;;;5016785;28;20450;-72
2023/05/06 10:13:18;;;;;;;1.93;1.73;;;20.00;48.10;;;;;;5002859;28;20451;-72
2023/05/06 10:15:48;;;;;;;1.90;1.80;;;20.00;48.10;;;;;;5002793;28;20457;-72
2023/05/06 10:18:18;;;;;;;2.63;1.83;;;20.00;48.10;;;;;;5007345;28;20968;-72
2023/05/06 10:20:45;;;;;;;2.17;1.97;;;20.00;48.10;;;;;;5001086;28;20445;-72
2023/05/06 10:23:27;;;;;;;3.33;1.60;;;20.00;48.10;;;;;;5007323;28;20467;-72
2023/05/06 10:25:56;;;;;;;3.63;2.20;;;20.00;48.10;;;;;;5013674;28;21340;-72
2023/05/06 10:28:22;;;;;;;1.90;1.80;;;20.00;48.20;;;;;;5001776;28;20439;-72
2023/05/06 10:30:49;;;;;;;7.20;2.10;;;20.00;48.20;;;;;;5004360;28;20467;-72
2023/05/06 10:33:16;;;;;;;4.50;1.97;;;20.00;48.20;;;;;;5005482;28;20451;-73
2023/05/06 10:35:45;;;;;;;5.93;2.80;;;20.00;48.30;;;;;;5006463;28;20456;-72
2023/05/06 10:38:34;;;;;;;7.10;2.10;;;20.00;48.30;;;;;;5012219;28;20778;-72
2023/05/06 10:41:01;;;;;;;2.13;1.93;;;20.10;48.30;;;;;;5006660;28;20977;-72
2023/05/06 10:43:31;;;;;;;2.43;2.10;;;20.00;48.30;;;;;;4997094;28;20489;-72
2023/05/06 10:46:11;;;;;;;4.47;2.00;;;20.00;48.30;;;;;;5004337;28;20512;-71
2023/05/06 10:48:57;;;;;;;3.27;2.20;;;20.00;48.30;;;;;;5015320;28;20523;-71
2023/05/06 10:51:24;;;;;;;3.00;2.03;;;20.00;48.30;;;;;;5015723;28;20473;-72
2023/05/06 10:53:58;;;;;;;2.47;2.00;;;20.00;48.30;;;;;;5013454;28;20987;-72
2023/05/06 10:56:24;;;;;;;1.90;1.80;;;20.10;48.40;;;;;;5014485;28;20438;-72
2023/05/06 10:58:52;;;;;;;2.00;1.90;;;20.00;48.30;;;;;;5011023;28;20431;-71
2023/05/06 11:01:26;;;;;;;4.23;2.23;;;20.00;48.30;;;;;;5010158;28;20470;-73
2023/05/06 11:03:53;;;;;;;3.60;2.00;;;20.00;48.40;;;;;;5003152;28;21052;-72
2023/05/06 11:06:35;;;;;;;2.13;1.93;;;20.00;48.40;;;;;;5003363;28;20497;-73
2023/05/06 11:09:03;;;;;;;1.80;1.70;;;20.00;48.40;;;;;;5005690;28;21194;-73
2023/05/06 11:11:52;;;;;;;1.53;1.43;;;20.00;48.40;;;;;;5007202;28;20444;-73
2023/05/06 11:14:26;;;;;;;2.33;1.63;;;20.00;48.40;;;;;;5002693;28;20461;-72
2023/05/06 11:16:52;;;;;;;1.67;1.57;;;20.00;48.40;;;;;;5003938;28;20556;-72
2023/05/06 11:19:26;;;;;;;2.33;1.60;;;20.00;48.50;;;;;;5003882;28;20448;-73
2023/05/06 11:21:53;;;;;;;1.90;1.40;;;20.00;48.50;;;;;;5000231;28;20585;-73
2023/05/06 11:24:29;;;;;;;1.70;1.60;;;20.00;48.50;;;;;;5002333;28;20492;-72
2023/05/06 11:26:57;;;;;;;1.53;1.43;;;20.00;48.40;;;;;;5012258;28;20463;-73
2023/05/06 11:29:22;;;;;;;3.00;1.50;;;20.00;48.50;;;;;;5008547;28;20476;-73
2023/05/06 11:31:49;;;;;;;2.10;1.50;;;20.00;48.40;;;;;;5003878;28;21083;-73
2023/05/06 11:34:21;;;;;;;1.57;1.47;;;20.00;48.40;;;;;;4991354;28;22076;-73
2023/05/06 11:36:50;;;;;;;1.40;1.30;;;20.00;48.50;;;;;;5004759;28;20430;-74
2023/05/06 11:39:15;;;;;;;2.07;1.77;;;20.00;48.50;;;;;;5001246;28;20527;-73
2023/05/06 11:41:41;;;;;;;2.57;1.80;;;20.00;48.50;;;;;;4992313;28;20450;-74
2023/05/06 11:44:08;;;;;;;2.27;1.97;;;20.00;48.50;;;;;;5010485;28;20211;-73
2023/05/06 11:46:34;;;;;;;1.60;1.50;;;20.00;48.50;;;;;;5010653;28;20748;-73
2023/05/06 11:48:59;;;;;;;2.47;1.43;;;20.00;48.50;;;;;;5012215;28;20427;-75
2023/05/06 11:51:25;;;;;;;1.43;1.33;;;20.00;48.50;;;;;;4999228;28;20223;-74
2023/05/06 11:53:52;;;;;;;1.77;1.67;;;20.00;48.50;;;;;;5006526;28;20227;-74
2023/05/06 11:56:18;;;;;;;2.87;1.50;;;20.00;48.50;;;;;;5029352;28;20222;-73
2023/05/06 11:58:45;;;;;;;1.40;1.30;;;20.00;48.50;;;;;;5001697;28;21142;-73
2023/05/06 12:01:11;;;;;;;1.70;1.60;;;20.00;48.40;;;;;;4995006;28;20240;-74
2023/05/06 12:03:36;;;;;;;2.07;1.40;;;20.00;48.50;;;;;;4999451;28;20448;-74
2023/05/06 12:06:02;;;;;;;1.80;1.30;;;20.00;48.40;;;;;;5009467;28;20633;-74
2023/05/06 12:08:35;;;;;;;1.50;1.40;;;20.00;48.50;;;;;;5010795;28;20223;-74
2023/05/06 12:11:03;;;;;;;1.90;1.60;;;20.00;48.40;;;;;;5009093;28;20222;-73
2023/05/06 12:13:29;;;;;;;1.37;1.27;;;20.00;48.40;;;;;;5001516;28;21562;-74
2023/05/06 12:15:57;;;;;;;1.50;1.40;;;20.00;48.50;;;;;;5005335;28;20459;-73
2023/05/06 12:18:23;;;;;;;2.17;1.10;;;20.00;48.50;;;;;;5001195;28;20428;-72
2023/05/06 12:20:48;;;;;;;1.47;1.37;;;20.00;48.50;;;;;;4992898;28;20448;-73
2023/05/06 12:23:15;;;;;;;1.43;1.33;;;20.00;48.50;;;;;;5007210;28;21010;-74
2023/05/06 12:25:42;;;;;;;1.77;1.40;;;20.00;48.40;;;;;;5008478;28;20729;-73
2023/05/06 12:28:14;;;;;;;1.40;1.30;;;20.00;48.50;;;;;;5010305;28;21034;-71
2023/05/06 12:30:40;;;;;;;1.60;1.50;;;20.00;48.50;;;;;;5005846;28;20456;-72
2023/05/06 12:33:07;;;;;;;1.50;1.40;;;20.00;48.50;;;;;;5013115;28;20438;-72
2023/05/06 12:35:33;;;;;;;2.30;1.40;;;20.00;48.50;;;;;;5007266;28;20238;-72
2023/05/06 12:38:13;;;;;;;1.30;1.20;;;20.00;48.50;;;;;;5004081;28;20960;-72
2023/05/06 12:40:40;;;;;;;1.50;1.40;;;20.00;48.40;;;;;;5005473;28;20262;-72
2023/05/06 12:43:05;;;;;;;1.30;1.20;;;20.00;48.50;;;;;;4998663;28;20962;-72
2023/05/06 12:45:31;;;;;;;1.80;1.70;;;20.00;48.50;;;;;;4997364;28;20483;-73
2023/05/06 12:47:58;;;;;;;2.77;1.27;;;20.00;48.40;;;;;;5006763;28;20239;-73